March AFB, California
Current Conditions -  °F | °C
As of 4:58 AM on Friday 28 Nov 2014 (Local Time) from KRIV Reporting Station
Clear Clear  
Wind Chill: 41°   Ceiling: Unl
Heat Index: 41°   Visibility: 10mi
Dew Point: 17°   Wind: 0mph
Humidity: 39%   Direction: NA
Pressure: 30.02"   Gusts: NA
Location:  33.89°N, 117.26°W
Report Text: KRIV 281258Z AUTO 00000KT 10SM CLR 05/M08 A3002 RMK AO2 SLP162 T00481082
Loading
Personal Weather Stations






























Interactive Weather Map New forecast layout! Learn more

10-Day Weather Forecast

Advertisements
Track Severe Weather on mobile